createdAt,value
2023-01-15T00:00:17.286Z,5.37
2023-01-15T00:02:46.747Z,5.50
2023-01-15T00:05:16.171Z,6.00
2023-01-15T00:07:45.493Z,6.40
2023-01-15T00:10:16.175Z,6.57
2023-01-15T00:12:45.745Z,7.40
2023-01-15T00:15:15.044Z,6.70
2023-01-15T00:17:44.405Z,6.23
2023-01-15T00:20:14.287Z,6.43
2023-01-15T00:22:43.688Z,6.20
2023-01-15T00:25:30.459Z,6.67
2023-01-15T00:28:02.031Z,7.03
2023-01-15T00:30:31.470Z,7.07
2023-01-15T00:33:02.084Z,6.60
2023-01-15T00:35:31.449Z,7.30
2023-01-15T00:38:00.589Z,7.50
2023-01-15T00:40:29.845Z,9.10
2023-01-15T00:42:59.115Z,9.50
2023-01-15T00:45:29.917Z,8.83
2023-01-15T00:47:59.621Z,9.63
2023-01-15T00:50:29.916Z,9.40
2023-01-15T00:53:00.143Z,9.47
2023-01-15T00:55:29.521Z,9.43
2023-01-15T00:57:59.186Z,8.40
2023-01-15T01:00:29.966Z,9.93
2023-01-15T01:03:01.124Z,9.30
2023-01-15T01:05:31.553Z,8.60
2023-01-15T01:08:01.864Z,8.67
2023-01-15T01:10:31.171Z,7.93
2023-01-15T01:13:00.860Z,8.40
2023-01-15T01:15:31.532Z,8.73
2023-01-15T01:18:01.363Z,8.87
2023-01-15T01:20:31.200Z,8.50
2023-01-15T01:23:00.580Z,8.40
2023-01-15T01:25:29.829Z,9.20
2023-01-15T01:27:59.053Z,8.77
2023-01-15T01:30:29.026Z,9.30
2023-01-15T01:33:00.055Z,10.67
2023-01-15T01:35:29.478Z,8.93
2023-01-15T01:37:58.863Z,8.40
2023-01-15T01:40:28.361Z,9.90
2023-01-15T01:42:57.709Z,8.60
2023-01-15T01:45:29.198Z,8.63
2023-01-15T01:48:01.975Z,7.87
2023-01-15T01:50:31.969Z,10.07
2023-01-15T01:53:02.201Z,8.97
2023-01-15T01:55:32.693Z,7.90
2023-01-15T01:58:02.847Z,8.20
2023-01-15T02:00:33.056Z,8.60
2023-01-15T02:03:04.725Z,9.30
2023-01-15T02:05:35.520Z,8.90
2023-01-15T02:08:06.915Z,9.30
2023-01-15T02:10:36.757Z,8.20
2023-01-15T02:13:10.036Z,8.60
2023-01-15T02:15:41.309Z,11.17
2023-01-15T02:18:15.343Z,8.30
2023-01-15T02:20:46.953Z,8.47
2023-01-15T02:23:24.996Z,8.03
2023-01-15T02:26:04.827Z,10.33
2023-01-15T02:28:37.397Z,8.03
2023-01-15T02:31:11.054Z,8.47
2023-01-15T02:33:42.506Z,8.93
2023-01-15T02:36:13.703Z,8.13
2023-01-15T02:38:46.026Z,8.30
2023-01-15T02:41:18.149Z,7.97
2023-01-15T02:43:52.925Z,7.80
2023-01-15T02:46:26.498Z,7.50
2023-01-15T02:48:57.971Z,8.70
2023-01-15T02:51:31.478Z,8.30
2023-01-15T02:54:03.166Z,8.13
2023-01-15T02:56:37.300Z,8.00
2023-01-15T02:59:10.777Z,7.60
2023-01-15T03:01:45.279Z,7.50
2023-01-15T03:04:18.098Z,8.33
2023-01-15T03:06:50.879Z,7.67
2023-01-15T03:09:21.046Z,8.80
2023-01-15T03:11:53.978Z,7.87
2023-01-15T03:14:29.108Z,7.83
2023-01-15T03:16:59.743Z,8.80
2023-01-15T03:19:30.156Z,7.87
2023-01-15T03:22:07.087Z,8.27
2023-01-15T03:24:40.026Z,7.07
2023-01-15T03:27:11.462Z,8.50
2023-01-15T03:29:45.811Z,8.27
2023-01-15T03:32:15.715Z,7.67
2023-01-15T03:34:48.647Z,3.53
2023-01-15T03:37:22.101Z,4.87
2023-01-15T03:39:51.902Z,3.37
2023-01-15T03:42:31.353Z,3.70
2023-01-15T03:45:06.079Z,3.10
2023-01-15T03:47:42.241Z,3.63
2023-01-15T03:50:16.650Z,3.00
2023-01-15T03:52:50.692Z,3.10
2023-01-15T03:55:23.351Z,3.90
2023-01-15T03:58:02.824Z,3.10
2023-01-15T04:00:39.392Z,3.67
2023-01-15T04:03:11.623Z,3.20
2023-01-15T04:05:42.131Z,3.20
2023-01-15T04:08:11.726Z,3.03
2023-01-15T04:10:52.047Z,2.50
2023-01-15T04:13:22.714Z,2.50
2023-01-15T04:15:54.059Z,3.00
2023-01-15T04:18:23.651Z,3.00
2023-01-15T04:20:54.065Z,3.60
2023-01-15T04:23:23.828Z,2.53
2023-01-15T04:25:53.217Z,2.83
2023-01-15T04:28:22.664Z,2.60
2023-01-15T04:30:53.374Z,2.40
2023-01-15T04:33:22.785Z,2.57
2023-01-15T04:35:51.907Z,2.87
2023-01-15T04:38:21.254Z,3.30
2023-01-15T04:41:07.740Z,2.40
2023-01-15T04:43:54.378Z,3.07
2023-01-15T04:46:25.691Z,2.73
2023-01-15T04:48:55.136Z,3.20
2023-01-15T04:51:24.293Z,3.10
2023-01-15T04:53:53.871Z,3.30
2023-01-15T04:56:23.266Z,3.10
2023-01-15T04:58:52.732Z,2.90
2023-01-15T05:01:22.087Z,3.37
2023-01-15T05:03:53.077Z,2.80
2023-01-15T05:06:22.471Z,2.97
2023-01-15T05:08:51.607Z,2.70
2023-01-15T05:11:21.394Z,3.00
2023-01-15T05:13:50.665Z,3.43
2023-01-15T05:16:20.726Z,3.23
2023-01-15T05:18:50.337Z,3.20
2023-01-15T05:21:21.957Z,3.30
2023-01-15T05:23:52.052Z,3.00
2023-01-15T05:26:21.746Z,3.00
2023-01-15T05:28:51.474Z,3.17
2023-01-15T05:31:21.139Z,3.20
2023-01-15T05:33:50.656Z,3.97
2023-01-15T05:36:22.307Z,3.33
2023-01-15T05:38:52.539Z,3.93
2023-01-15T05:41:39.937Z,3.23
2023-01-15T05:44:10.381Z,3.20
2023-01-15T05:46:40.477Z,3.37
2023-01-15T05:49:11.657Z,3.33
2023-01-15T05:51:42.786Z,3.60
2023-01-15T05:54:14.085Z,5.80
2023-01-15T05:56:43.468Z,3.50
2023-01-15T05:59:12.622Z,3.67
2023-01-15T06:01:42.301Z,3.53
2023-01-15T06:04:14.418Z,3.43
2023-01-15T06:06:45.500Z,2.70
2023-01-15T06:09:14.749Z,3.33
2023-01-15T06:11:44.242Z,3.30
2023-01-15T06:14:13.701Z,3.50
2023-01-15T06:16:43.207Z,4.40
2023-01-15T06:19:14.468Z,3.70
2023-01-15T06:21:45.093Z,3.10
2023-01-15T06:24:16.757Z,3.40
2023-01-15T06:26:46.059Z,3.83
2023-01-15T06:29:19.065Z,3.87
2023-01-15T06:31:49.652Z,3.17
2023-01-15T06:34:19.067Z,3.53
2023-01-15T06:36:49.785Z,4.07
2023-01-15T06:39:19.139Z,3.50
2023-01-15T06:42:05.850Z,3.80
2023-01-15T06:44:52.603Z,3.47
2023-01-15T06:47:23.264Z,3.83
2023-01-15T06:49:53.863Z,3.60
2023-01-15T06:52:24.756Z,3.97
2023-01-15T06:54:54.324Z,3.83
2023-01-15T06:57:23.925Z,4.37
2023-01-15T06:59:53.346Z,3.37
2023-01-15T07:02:22.893Z,3.90
2023-01-15T07:04:53.435Z,3.20
2023-01-15T07:07:22.959Z,4.13
2023-01-15T07:09:53.683Z,3.87
2023-01-15T07:12:23.570Z,3.70
2023-01-15T07:14:52.897Z,4.20
2023-01-15T07:17:22.223Z,3.50
2023-01-15T07:19:51.459Z,3.60
2023-01-15T07:22:20.947Z,3.70
2023-01-15T07:24:50.363Z,3.97
2023-01-15T07:27:20.961Z,3.87
2023-01-15T07:29:52.263Z,4.10
2023-01-15T07:32:21.947Z,4.20
2023-01-15T07:34:51.208Z,3.60
2023-01-15T07:37:20.491Z,4.40
2023-01-15T07:39:49.734Z,3.53
2023-01-15T07:42:37.720Z,4.30
2023-01-15T07:45:25.072Z,4.10
2023-01-15T07:48:11.878Z,3.80
2023-01-15T07:50:41.521Z,3.90
2023-01-15T07:53:10.674Z,4.63
2023-01-15T07:55:39.874Z,4.17
2023-01-15T07:58:10.551Z,4.00
2023-01-15T08:00:41.874Z,4.10
2023-01-15T08:03:11.139Z,4.33
2023-01-15T08:05:40.678Z,3.87
2023-01-15T08:08:16.345Z,3.90
2023-01-15T08:11:07.104Z,3.87
2023-01-15T08:13:55.228Z,4.07
2023-01-15T08:16:24.969Z,3.90
2023-01-15T08:18:54.449Z,4.40
2023-01-15T08:21:23.753Z,4.33
2023-01-15T08:23:53.144Z,4.10
2023-01-15T08:26:22.363Z,4.60
2023-01-15T08:28:52.983Z,4.17
2023-01-15T08:31:22.480Z,4.40
2023-01-15T08:33:51.729Z,5.00
2023-01-15T08:36:20.978Z,4.60
2023-01-15T08:38:51.392Z,4.10
2023-01-15T08:41:20.668Z,4.77
2023-01-15T08:43:50.213Z,4.27
2023-01-15T08:46:21.096Z,5.00
2023-01-15T08:48:50.604Z,4.93
2023-01-15T08:51:19.767Z,4.90
2023-01-15T08:53:49.462Z,4.93
2023-01-15T08:56:19.598Z,5.20
2023-01-15T08:58:49.637Z,5.03
2023-01-15T09:01:20.311Z,4.40
2023-01-15T09:03:49.720Z,5.23
2023-01-15T09:06:19.115Z,5.60
2023-01-15T09:08:48.345Z,5.50
2023-01-15T09:11:17.554Z,8.40
2023-01-15T09:13:48.461Z,5.50
2023-01-15T09:16:17.774Z,4.97
2023-01-15T09:18:48.470Z,5.03
2023-01-15T09:21:17.884Z,5.00
2023-01-15T09:23:47.278Z,5.47
2023-01-15T09:26:27.230Z,5.40
2023-01-15T09:28:57.069Z,5.27
2023-01-15T09:31:28.929Z,5.47
2023-01-15T09:34:00.284Z,5.83
2023-01-15T09:36:30.516Z,5.60
2023-01-15T09:39:00.321Z,6.00
2023-01-15T09:41:57.796Z,4.67
2023-01-15T09:44:34.358Z,5.60
2023-01-15T09:47:06.434Z,5.60
2023-01-15T09:49:53.279Z,5.90
2023-01-15T09:52:26.731Z,5.87
2023-01-15T09:55:00.491Z,5.17
2023-01-15T09:57:30.839Z,5.23
2023-01-15T10:00:02.795Z,6.03
2023-01-15T10:02:45.273Z,6.43
2023-01-15T10:05:19.611Z,6.47
2023-01-15T10:07:53.622Z,6.40
2023-01-15T10:10:24.777Z,6.60
2023-01-15T10:12:56.857Z,6.30
2023-01-15T10:15:33.489Z,6.03
2023-01-15T10:18:02.960Z,6.20
2023-01-15T10:20:46.932Z,5.53
2023-01-15T10:23:25.117Z,4.67
2023-01-15T10:25:57.544Z,5.73
2023-01-15T10:28:30.564Z,5.30
2023-01-15T10:31:05.021Z,8.10
2023-01-15T10:33:41.903Z,5.10
2023-01-15T10:36:13.569Z,5.70
2023-01-15T10:38:50.004Z,5.90
2023-01-15T10:41:27.136Z,6.30
2023-01-15T10:43:58.106Z,5.20
2023-01-15T10:46:28.370Z,5.40
2023-01-15T10:48:58.924Z,5.83
2023-01-15T10:51:30.411Z,5.73
2023-01-15T10:54:02.894Z,5.50
2023-01-15T10:56:35.222Z,5.10
2023-01-15T10:59:08.890Z,5.00
2023-01-15T11:01:40.056Z,5.43
2023-01-15T11:04:10.642Z,5.20
2023-01-15T11:06:40.140Z,5.30
2023-01-15T11:09:13.195Z,4.27
2023-01-15T11:12:03.003Z,4.80
2023-01-15T11:14:53.983Z,4.80
2023-01-15T11:17:41.307Z,5.20
2023-01-15T11:20:18.999Z,4.43
2023-01-15T11:22:48.440Z,5.23
2023-01-15T11:25:27.047Z,4.63
2023-01-15T11:27:56.597Z,5.17
2023-01-15T11:30:29.972Z,5.33
2023-01-15T11:33:00.623Z,5.83
2023-01-15T11:35:29.818Z,6.53
2023-01-15T11:38:06.647Z,4.97
2023-01-15T11:40:37.473Z,5.67
2023-01-15T11:43:38.192Z,4.97
2023-01-15T11:46:24.984Z,5.30
2023-01-15T11:49:20.139Z,5.03
2023-01-15T11:51:50.734Z,4.80
2023-01-15T11:54:20.631Z,4.10
2023-01-15T11:56:51.561Z,4.13
2023-01-15T11:59:21.544Z,4.80
2023-01-15T12:01:55.050Z,4.93
2023-01-15T12:04:30.121Z,4.07
2023-01-15T12:07:00.135Z,4.60
2023-01-15T12:09:32.986Z,4.30
2023-01-15T12:12:10.373Z,4.30
2023-01-15T12:15:04.288Z,6.20
2023-01-15T12:17:40.456Z,5.60
2023-01-15T12:20:16.119Z,5.90
2023-01-15T12:22:52.482Z,5.50
2023-01-15T12:25:24.793Z,5.30
2023-01-15T12:28:04.995Z,5.67
2023-01-15T12:30:39.243Z,6.90
2023-01-15T12:33:15.557Z,6.27
2023-01-15T12:35:47.023Z,7.40
2023-01-15T12:38:20.431Z,7.43
2023-01-15T12:40:51.878Z,8.00
2023-01-15T12:43:43.314Z,7.90
2023-01-15T12:46:14.781Z,7.60
2023-01-15T12:48:47.704Z,8.47
2023-01-15T12:51:20.971Z,7.10
2023-01-15T12:53:53.426Z,8.00
2023-01-15T12:56:26.887Z,9.37
2023-01-15T12:59:00.875Z,8.37
2023-01-15T13:01:33.980Z,8.07
2023-01-15T13:04:09.881Z,7.30
2023-01-15T13:06:41.425Z,6.87
2023-01-15T13:09:13.252Z,8.00
2023-01-15T13:11:43.014Z,7.00
2023-01-15T13:14:17.290Z,6.60
2023-01-15T13:16:50.004Z,6.70
2023-01-15T13:19:24.194Z,6.80
2023-01-15T13:21:56.291Z,6.90
2023-01-15T13:24:30.663Z,7.33
2023-01-15T13:27:05.903Z,7.57
2023-01-15T13:29:41.870Z,9.20
2023-01-15T13:32:14.329Z,7.77
2023-01-15T13:34:45.688Z,7.30
2023-01-15T13:37:20.681Z,7.20
2023-01-15T13:39:51.430Z,7.30
2023-01-15T13:42:35.480Z,7.87
2023-01-15T13:45:08.675Z,7.43
2023-01-15T13:47:39.974Z,6.90
2023-01-15T13:50:15.215Z,8.50
2023-01-15T13:52:44.621Z,6.80
2023-01-15T13:55:18.849Z,6.23
2023-01-15T13:57:49.179Z,6.33
2023-01-15T14:00:34.390Z,6.53
2023-01-15T14:03:04.326Z,6.97
2023-01-15T14:05:34.294Z,7.20
2023-01-15T14:08:04.641Z,8.17
2023-01-15T14:10:40.634Z,7.27
2023-01-15T14:13:21.299Z,7.70
2023-01-15T14:15:55.037Z,7.03
2023-01-15T14:18:43.028Z,6.40
2023-01-15T14:21:23.411Z,11.90
2023-01-15T14:24:00.577Z,6.70
2023-01-15T14:26:32.511Z,6.73
2023-01-15T14:29:06.209Z,6.60
2023-01-15T14:31:50.322Z,6.97
2023-01-15T14:34:21.218Z,6.07
2023-01-15T14:36:56.493Z,6.90
2023-01-15T14:39:31.845Z,7.20
2023-01-15T14:42:22.101Z,6.40
2023-01-15T14:44:58.372Z,5.90
2023-01-15T14:47:31.589Z,6.00
2023-01-15T14:50:06.645Z,6.23
2023-01-15T14:52:36.158Z,6.70
2023-01-15T14:55:05.447Z,6.57
2023-01-15T14:57:35.419Z,6.60
2023-01-15T15:00:06.256Z,5.70
2023-01-15T15:02:38.191Z,5.93
2023-01-15T15:05:09.387Z,4.97
2023-01-15T15:07:41.851Z,5.10
2023-01-15T15:10:15.332Z,5.13
2023-01-15T15:12:46.401Z,6.40
2023-01-15T15:15:18.762Z,5.73
2023-01-15T15:17:57.759Z,5.17
2023-01-15T15:20:32.694Z,6.40
2023-01-15T15:23:06.039Z,5.83
2023-01-15T15:25:39.439Z,6.77
2023-01-15T15:28:11.599Z,6.40
2023-01-15T15:30:44.615Z,8.10
2023-01-15T15:33:19.198Z,5.37
2023-01-15T15:35:50.116Z,4.20
2023-01-15T15:38:20.590Z,3.83
2023-01-15T15:40:52.896Z,4.70
2023-01-15T15:43:42.050Z,3.67
2023-01-15T15:46:41.809Z,4.30
2023-01-15T15:49:12.879Z,19.30
2023-01-15T15:51:46.874Z,3.83
2023-01-15T15:54:17.547Z,3.60
2023-01-15T15:56:49.450Z,3.40
2023-01-15T15:59:20.723Z,4.10
2023-01-15T16:01:50.166Z,3.27
2023-01-15T16:04:22.042Z,3.60
2023-01-15T16:06:52.114Z,4.10
2023-01-15T16:09:25.229Z,3.70
2023-01-15T16:11:55.764Z,4.00
2023-01-15T16:14:25.130Z,3.07
2023-01-15T16:16:54.664Z,3.87
2023-01-15T16:19:27.817Z,4.43
2023-01-15T16:21:57.675Z,3.10
2023-01-15T16:24:31.023Z,3.67
2023-01-15T16:27:07.876Z,3.60
2023-01-15T16:29:38.264Z,2.70
2023-01-15T16:32:14.499Z,3.17
2023-01-15T16:34:45.313Z,3.70
2023-01-15T16:37:22.935Z,3.10
2023-01-15T16:39:52.625Z,3.33
2023-01-15T16:42:30.051Z,4.30
2023-01-15T16:45:02.156Z,3.00
2023-01-15T16:47:34.585Z,3.23
2023-01-15T16:50:18.745Z,2.80
2023-01-15T16:52:53.277Z,2.80
2023-01-15T16:55:39.427Z,2.77
2023-01-15T16:58:22.370Z,2.33
2023-01-15T17:00:53.202Z,2.73
2023-01-15T17:03:23.178Z,3.33
2023-01-15T17:05:54.012Z,2.50
2023-01-15T17:08:26.442Z,2.90
2023-01-15T17:10:56.565Z,2.90
2023-01-15T17:13:30.375Z,3.07
2023-01-15T17:16:04.374Z,3.33
2023-01-15T17:18:33.969Z,3.87
2023-01-15T17:21:03.546Z,3.63
2023-01-15T17:23:36.814Z,3.70
2023-01-15T17:26:07.105Z,3.33
2023-01-15T17:28:36.407Z,4.77
2023-01-15T17:31:06.066Z,3.60
2023-01-15T17:33:35.297Z,2.30
2023-01-15T17:36:04.971Z,2.67
2023-01-15T17:38:35.655Z,5.07
2023-01-15T17:41:07.348Z,2.43
2023-01-15T17:43:36.812Z,7.60
2023-01-15T17:46:06.309Z,3.03
2023-01-15T17:48:35.880Z,2.20
2023-01-15T17:51:06.033Z,2.90
2023-01-15T17:53:37.163Z,3.07
2023-01-15T17:56:24.134Z,2.97
2023-01-15T17:59:10.909Z,2.47
2023-01-15T18:01:58.955Z,3.00
2023-01-15T18:04:47.160Z,3.07
2023-01-15T18:07:17.504Z,3.03
2023-01-15T18:09:50.472Z,2.90
2023-01-15T18:12:19.838Z,3.33
2023-01-15T18:14:49.135Z,4.00
2023-01-15T18:17:18.757Z,2.97
2023-01-15T18:19:48.460Z,8.87
2023-01-15T18:22:19.089Z,2.50
2023-01-15T18:24:49.844Z,3.13
2023-01-15T18:27:19.177Z,2.00
2023-01-15T18:29:48.579Z,3.20
2023-01-15T18:32:17.843Z,2.90
2023-01-15T18:34:47.258Z,2.10
2023-01-15T18:37:16.450Z,2.10
2023-01-15T18:39:45.962Z,2.00
2023-01-15T18:42:34.670Z,3.73
2023-01-15T18:45:21.815Z,2.20
2023-01-15T18:47:50.999Z,2.10
2023-01-15T18:50:20.306Z,2.20
2023-01-15T18:52:52.668Z,2.20
2023-01-15T18:55:23.096Z,2.90
2023-01-15T18:57:53.876Z,2.10
2023-01-15T19:00:24.290Z,4.70
2023-01-15T19:02:53.842Z,2.80
2023-01-15T19:05:23.093Z,3.57
2023-01-15T19:07:52.412Z,6.60
2023-01-15T19:10:22.116Z,2.80
2023-01-15T19:12:51.386Z,2.60
2023-01-15T19:15:39.768Z,2.00
2023-01-15T19:18:26.650Z,2.70
2023-01-15T19:20:56.084Z,2.77
2023-01-15T19:23:25.325Z,2.00
2023-01-15T19:25:54.754Z,2.00
2023-01-15T19:28:23.928Z,1.80
2023-01-15T19:31:12.035Z,2.10
2023-01-15T19:33:41.513Z,1.87
2023-01-15T19:36:11.059Z,2.40
2023-01-15T19:38:41.218Z,2.00
2023-01-15T19:41:31.304Z,2.97
2023-01-15T19:44:18.221Z,2.67
2023-01-15T19:47:06.267Z,2.40
2023-01-15T19:49:55.318Z,2.37
2023-01-15T19:52:37.074Z,2.53
2023-01-15T19:55:08.022Z,3.17
2023-01-15T19:57:37.453Z,2.57
2023-01-15T20:00:06.936Z,2.83
2023-01-15T20:02:38.025Z,3.17
2023-01-15T20:05:07.885Z,2.90
2023-01-15T20:07:38.045Z,2.60
2023-01-15T20:10:09.355Z,2.10
2023-01-15T20:12:56.324Z,2.97
2023-01-15T20:15:25.671Z,4.30
2023-01-15T20:17:56.214Z,3.67
2023-01-15T20:20:25.953Z,2.27
2023-01-15T20:22:58.006Z,2.57
2023-01-15T20:25:27.628Z,3.10
2023-01-15T20:27:57.549Z,2.63
2023-01-15T20:30:26.986Z,2.33
2023-01-15T20:32:59.141Z,2.43
2023-01-15T20:35:31.450Z,4.70
2023-01-15T20:38:00.971Z,3.00
2023-01-15T20:40:30.432Z,2.70
2023-01-15T20:43:17.347Z,2.50
2023-01-15T20:45:46.564Z,2.03
2023-01-15T20:48:34.768Z,2.23
2023-01-15T20:51:12.643Z,2.50
2023-01-15T20:53:42.707Z,3.30
2023-01-15T20:56:15.408Z,2.00
2023-01-15T20:58:45.215Z,2.63
2023-01-15T21:01:14.668Z,4.07
2023-01-15T21:03:45.447Z,3.20
2023-01-15T21:06:14.728Z,3.67
2023-01-15T21:08:46.211Z,3.30
2023-01-15T21:11:15.637Z,4.20
2023-01-15T21:13:47.236Z,3.60
2023-01-15T21:16:17.124Z,3.77
2023-01-15T21:18:49.255Z,2.90
2023-01-15T21:21:19.578Z,2.47
2023-01-15T21:23:48.906Z,2.67
2023-01-15T21:26:18.810Z,2.57
2023-01-15T21:28:48.060Z,2.40
2023-01-15T21:31:17.893Z,2.07
2023-01-15T21:33:48.552Z,2.40
2023-01-15T21:36:17.880Z,2.07
2023-01-15T21:38:51.505Z,2.60
2023-01-15T21:41:20.918Z,2.40
2023-01-15T21:44:07.700Z,3.47
2023-01-15T21:46:37.176Z,3.17
2023-01-15T21:49:07.760Z,2.20
2023-01-15T21:51:37.062Z,3.30
2023-01-15T21:54:06.497Z,2.40
2023-01-15T21:56:35.754Z,2.83
2023-01-15T21:59:05.021Z,3.10
2023-01-15T22:01:34.384Z,5.00
2023-01-15T22:04:03.630Z,2.40
2023-01-15T22:06:36.152Z,3.00
2023-01-15T22:09:06.504Z,3.80
2023-01-15T22:11:45.067Z,4.00
2023-01-15T22:14:15.750Z,2.10
2023-01-15T22:16:45.134Z,3.83
2023-01-15T22:19:19.703Z,2.50
2023-01-15T22:21:51.742Z,3.07
2023-01-15T22:24:21.697Z,2.57
2023-01-15T22:26:54.579Z,3.03
2023-01-15T22:29:24.204Z,4.17
2023-01-15T22:31:53.406Z,2.50
2023-01-15T22:34:22.925Z,2.53
2023-01-15T22:36:53.607Z,1.87
2023-01-15T22:39:23.459Z,2.70
2023-01-15T22:42:10.072Z,2.33
2023-01-15T22:44:39.948Z,1.77
2023-01-15T22:47:09.163Z,2.00
2023-01-15T22:49:38.470Z,1.93
2023-01-15T22:52:09.065Z,1.87
2023-01-15T22:54:38.597Z,1.97
2023-01-15T22:57:07.819Z,1.73
2023-01-15T22:59:37.069Z,3.20
2023-01-15T23:02:06.343Z,8.53
2023-01-15T23:04:36.122Z,2.30
2023-01-15T23:07:05.463Z,2.20
2023-01-15T23:09:37.337Z,4.03
2023-01-15T23:12:06.987Z,2.37
2023-01-15T23:14:36.260Z,2.67
2023-01-15T23:17:05.624Z,2.30
2023-01-15T23:19:34.774Z,3.10
2023-01-15T23:22:04.157Z,3.50
2023-01-15T23:24:33.619Z,2.93
2023-01-15T23:27:04.183Z,3.20
2023-01-15T23:29:34.526Z,3.63
2023-01-15T23:32:03.810Z,2.80
2023-01-15T23:34:33.027Z,2.80
2023-01-15T23:37:02.226Z,3.20
2023-01-15T23:39:31.693Z,2.33
2023-01-15T23:42:18.538Z,2.70
2023-01-15T23:45:07.012Z,3.20
2023-01-15T23:47:36.170Z,2.87
2023-01-15T23:50:05.721Z,2.17
2023-01-15T23:52:34.922Z,2.63
2023-01-15T23:55:04.182Z,2.67
2023-01-15T23:57:33.405Z,2.20
